createdAt,value
2019-03-06T00:00:07.305Z,16.50
2019-03-06T00:01:07.270Z,17.00
2019-03-06T00:02:07.234Z,16.20
2019-03-06T00:03:07.204Z,16.70
2019-03-06T00:04:07.176Z,14.70
2019-03-06T00:05:07.138Z,16.80
2019-03-06T00:06:16.240Z,16.80
2019-03-06T00:07:07.074Z,17.10
2019-03-06T00:08:07.038Z,17.00
2019-03-06T00:09:07.007Z,17.10
2019-03-06T00:10:06.971Z,17.30
2019-03-06T00:11:06.938Z,16.70
2019-03-06T00:12:06.905Z,16.60
2019-03-06T00:13:06.872Z,17.20
2019-03-06T00:14:06.839Z,16.90
2019-03-06T00:15:06.806Z,16.90
2019-03-06T00:16:06.777Z,16.50
2019-03-06T00:17:06.741Z,16.10
2019-03-06T00:18:06.710Z,15.90
2019-03-06T00:19:06.675Z,16.60
2019-03-06T00:20:06.640Z,16.20
2019-03-06T00:21:06.609Z,16.70
2019-03-06T00:22:06.575Z,15.80
2019-03-06T00:23:06.542Z,15.80
2019-03-06T00:24:06.509Z,15.90
2019-03-06T00:25:06.475Z,15.90
2019-03-06T00:26:06.443Z,15.40
2019-03-06T00:27:06.409Z,16.00
2019-03-06T00:28:06.377Z,16.30
2019-03-06T00:29:06.344Z,16.00
2019-03-06T00:30:06.352Z,16.70
2019-03-06T00:31:06.277Z,16.70
2019-03-06T00:32:06.243Z,15.90
2019-03-06T00:33:06.239Z,16.10
2019-03-06T00:34:06.177Z,16.50
2019-03-06T00:35:06.144Z,17.20
2019-03-06T00:36:06.113Z,17.00
2019-03-06T00:37:06.078Z,15.80
2019-03-06T00:38:06.045Z,17.60
2019-03-06T00:39:06.015Z,15.70
2019-03-06T00:40:05.981Z,15.90
2019-03-06T00:41:05.946Z,17.10
2019-03-06T00:42:05.912Z,16.20
2019-03-06T00:43:05.891Z,16.30
2019-03-06T00:44:05.845Z,16.20
2019-03-06T00:45:05.813Z,15.80
2019-03-06T00:46:05.783Z,16.30
2019-03-06T00:47:05.746Z,16.50
2019-03-06T00:48:05.714Z,16.40
2019-03-06T00:49:05.681Z,15.60
2019-03-06T00:50:05.647Z,17.30
2019-03-06T00:51:05.613Z,15.70
2019-03-06T00:52:05.582Z,17.30
2019-03-06T00:53:05.547Z,15.90
2019-03-06T00:54:05.514Z,16.60
2019-03-06T00:55:05.481Z,16.20
2019-03-06T00:56:05.447Z,17.40
2019-03-06T00:57:05.415Z,16.70
2019-03-06T00:58:05.381Z,16.60
2019-03-06T00:59:05.348Z,16.90
2019-03-06T01:00:05.315Z,17.50
2019-03-06T01:01:05.283Z,16.50
2019-03-06T01:02:05.247Z,16.60
2019-03-06T01:03:05.214Z,17.40
2019-03-06T01:04:05.183Z,16.70
2019-03-06T01:05:05.149Z,16.50
2019-03-06T01:06:05.115Z,15.90
2019-03-06T01:07:05.082Z,17.00
2019-03-06T01:08:05.053Z,17.40
2019-03-06T01:09:05.017Z,17.60
2019-03-06T01:10:04.982Z,18.00
2019-03-06T01:11:04.950Z,18.10
2019-03-06T01:12:04.915Z,17.30
2019-03-06T01:13:04.882Z,16.80
2019-03-06T01:14:04.849Z,18.30
2019-03-06T01:15:04.816Z,17.50
2019-03-06T01:16:04.782Z,18.10
2019-03-06T01:17:04.748Z,17.80
2019-03-06T01:18:04.717Z,17.40
2019-03-06T01:19:04.684Z,18.50
2019-03-06T01:20:04.649Z,18.70
2019-03-06T01:21:04.622Z,18.70
2019-03-06T01:22:04.581Z,17.80
2019-03-06T01:23:04.554Z,17.20
2019-03-06T01:24:04.518Z,18.40
2019-03-06T01:25:04.483Z,17.50
2019-03-06T01:26:04.447Z,19.60
2019-03-06T01:27:04.423Z,19.00
2019-03-06T01:28:04.383Z,18.70
2019-03-06T01:29:04.350Z,19.30
2019-03-06T01:30:04.318Z,18.40
2019-03-06T01:31:04.284Z,18.30
2019-03-06T01:32:04.250Z,18.60
2019-03-06T01:33:04.216Z,18.70
2019-03-06T01:34:04.184Z,18.10
2019-03-06T01:35:04.150Z,18.90
2019-03-06T01:36:04.117Z,18.40
2019-03-06T01:37:04.086Z,18.60
2019-03-06T01:38:04.051Z,19.00
2019-03-06T01:39:04.015Z,18.60
2019-03-06T01:40:03.988Z,18.60
2019-03-06T01:41:03.950Z,18.00
2019-03-06T01:42:03.917Z,19.70
2019-03-06T01:43:03.883Z,18.40
2019-03-06T01:44:03.849Z,19.60
2019-03-06T01:45:03.815Z,18.70
2019-03-06T01:46:03.782Z,18.10
2019-03-06T01:47:03.749Z,18.80
2019-03-06T01:48:03.714Z,20.10
2019-03-06T01:49:03.682Z,18.70
2019-03-06T01:50:03.649Z,18.80
2019-03-06T01:51:03.615Z,18.70
2019-03-06T01:52:03.582Z,18.70
2019-03-06T01:53:03.549Z,19.90
2019-03-06T01:54:03.515Z,19.40
2019-03-06T01:55:03.480Z,19.10
2019-03-06T01:56:03.447Z,20.10
2019-03-06T01:57:03.414Z,18.90
2019-03-06T01:58:03.381Z,19.10
2019-03-06T01:59:03.347Z,20.00
2019-03-06T02:00:03.313Z,19.40
2019-03-06T02:01:03.282Z,18.80
2019-03-06T02:02:03.247Z,19.80
2019-03-06T02:03:03.214Z,19.90
2019-03-06T02:04:03.178Z,20.20
2019-03-06T02:05:03.150Z,18.10
2019-03-06T02:06:03.114Z,19.40
2019-03-06T02:07:03.079Z,20.80
2019-03-06T02:08:03.045Z,20.30
2019-03-06T02:09:03.013Z,20.00
2019-03-06T02:10:02.978Z,19.80
2019-03-06T02:11:02.946Z,19.70
2019-03-06T02:12:02.912Z,20.50
2019-03-06T02:13:02.880Z,19.40
2019-03-06T02:14:02.843Z,19.40
2019-03-06T02:15:02.814Z,19.20
2019-03-06T02:16:02.777Z,19.20
2019-03-06T02:17:02.747Z,19.20
2019-03-06T02:18:02.710Z,18.60
2019-03-06T02:19:02.678Z,19.30
2019-03-06T02:20:02.643Z,18.10
2019-03-06T02:21:02.611Z,19.50
2019-03-06T02:22:02.576Z,20.30
2019-03-06T02:23:02.541Z,18.70
2019-03-06T02:24:02.510Z,19.20
2019-03-06T02:25:02.475Z,18.90
2019-03-06T02:26:02.442Z,18.60
2019-03-06T02:27:02.410Z,18.90
2019-03-06T02:28:02.375Z,18.90
2019-03-06T02:29:02.342Z,19.00
2019-03-06T02:30:02.310Z,18.80
2019-03-06T02:31:02.273Z,18.70
2019-03-06T02:32:02.242Z,20.20
2019-03-06T02:33:02.207Z,19.50
2019-03-06T02:34:02.174Z,19.90
2019-03-06T02:35:02.210Z,19.70
2019-03-06T02:36:02.109Z,20.20
2019-03-06T02:37:02.075Z,19.00
2019-03-06T02:38:02.042Z,20.00
2019-03-06T02:39:02.009Z,20.10
2019-03-06T02:40:01.975Z,19.50
2019-03-06T02:41:01.940Z,19.90
2019-03-06T02:42:01.904Z,19.70
2019-03-06T02:43:01.874Z,19.60
2019-03-06T02:44:01.842Z,19.80
2019-03-06T02:45:01.806Z,18.70
2019-03-06T02:46:01.772Z,20.40
2019-03-06T02:47:01.738Z,19.30
2019-03-06T02:48:01.706Z,20.50
2019-03-06T02:49:01.672Z,20.10
2019-03-06T02:50:01.659Z,20.40
2019-03-06T02:51:01.614Z,20.60
2019-03-06T02:52:01.640Z,19.20
2019-03-06T02:53:01.538Z,20.40
2019-03-06T02:54:01.504Z,20.10
2019-03-06T02:55:01.470Z,20.70
2019-03-06T02:56:01.437Z,21.60
2019-03-06T02:57:01.406Z,20.60
2019-03-06T02:58:01.370Z,20.80
2019-03-06T02:59:01.338Z,20.50
2019-03-06T03:00:01.314Z,20.40
2019-03-06T03:01:01.270Z,20.20
2019-03-06T03:02:01.241Z,21.40
2019-03-06T03:03:01.205Z,20.60
2019-03-06T03:04:01.170Z,20.90
2019-03-06T03:05:01.137Z,20.70
2019-03-06T03:06:01.105Z,20.90
2019-03-06T03:07:01.069Z,20.90
2019-03-06T03:08:01.040Z,20.70
2019-03-06T03:09:01.002Z,20.70
2019-03-06T03:10:00.968Z,20.10
2019-03-06T03:11:00.935Z,21.60
2019-03-06T03:12:00.902Z,21.40
2019-03-06T03:13:00.869Z,21.10
2019-03-06T03:14:00.834Z,20.70
2019-03-06T03:15:00.803Z,20.00
2019-03-06T03:16:00.769Z,20.30
2019-03-06T03:17:00.735Z,20.30
2019-03-06T03:18:00.702Z,20.70
2019-03-06T03:19:00.668Z,20.20
2019-03-06T03:20:00.634Z,20.60
2019-03-06T03:21:00.608Z,20.80
2019-03-06T03:22:00.567Z,20.90
2019-03-06T03:23:00.536Z,20.10
2019-03-06T03:24:00.501Z,20.50
2019-03-06T03:25:00.492Z,21.30
2019-03-06T03:26:00.433Z,21.40
2019-03-06T03:27:00.406Z,20.80
2019-03-06T03:28:00.369Z,21.50
2019-03-06T03:29:00.333Z,22.00
2019-03-06T03:30:00.649Z,20.70
2019-03-06T03:31:00.266Z,21.00
2019-03-06T03:32:00.235Z,21.50
2019-03-06T03:33:00.201Z,22.70
2019-03-06T03:34:00.179Z,21.90
2019-03-06T03:35:00.609Z,21.50
2019-03-06T03:36:00.099Z,21.10
2019-03-06T03:37:00.067Z,22.10
2019-03-06T03:38:00.032Z,22.20
2019-03-06T03:39:00.000Z,20.90
2019-03-06T03:39:59.964Z,21.90
2019-03-06T03:40:59.933Z,21.90
2019-03-06T03:41:59.898Z,21.40
2019-03-06T03:42:59.864Z,21.80
2019-03-06T03:43:59.833Z,21.70
2019-03-06T03:44:59.800Z,21.90
2019-03-06T03:45:59.765Z,20.90
2019-03-06T03:46:59.733Z,21.60
2019-03-06T03:47:59.698Z,22.90
2019-03-06T03:48:59.665Z,23.00
2019-03-06T03:49:59.630Z,21.70
2019-03-06T03:50:59.598Z,20.30
2019-03-06T03:51:59.566Z,21.50
2019-03-06T03:52:59.535Z,22.70
2019-03-06T03:53:59.497Z,22.00
2019-03-06T03:54:59.465Z,22.30
2019-03-06T03:55:59.442Z,22.30
2019-03-06T03:56:59.397Z,21.80
2019-03-06T03:57:59.370Z,21.20
2019-03-06T03:58:59.331Z,22.70
2019-03-06T03:59:59.298Z,22.40
2019-03-06T04:00:59.264Z,23.00
2019-03-06T04:01:59.232Z,22.50
2019-03-06T04:02:59.196Z,22.00
2019-03-06T04:03:59.163Z,21.90
2019-03-06T04:04:59.129Z,22.50
2019-03-06T04:05:59.096Z,22.00
2019-03-06T04:06:59.063Z,22.10
2019-03-06T04:07:59.029Z,21.70
2019-03-06T04:08:58.997Z,22.20
2019-03-06T04:09:58.963Z,23.30
2019-03-06T04:10:58.932Z,22.70
2019-03-06T04:11:58.899Z,21.90
2019-03-06T04:12:58.864Z,22.90
2019-03-06T04:13:58.829Z,23.40
2019-03-06T04:14:58.796Z,23.80
2019-03-06T04:15:58.762Z,22.50
2019-03-06T04:16:58.733Z,22.20
2019-03-06T04:17:58.695Z,23.50
2019-03-06T04:18:58.665Z,24.90
2019-03-06T04:19:58.631Z,23.80
2019-03-06T04:20:58.595Z,23.40
2019-03-06T04:21:58.561Z,22.00
2019-03-06T04:22:58.532Z,23.40
2019-03-06T04:23:58.496Z,24.10
2019-03-06T04:24:58.461Z,23.30
2019-03-06T04:25:58.426Z,25.00
2019-03-06T04:26:58.392Z,25.00
2019-03-06T04:27:58.361Z,23.60
2019-03-06T04:28:58.326Z,24.90
2019-03-06T04:29:58.293Z,24.90
2019-03-06T04:30:58.261Z,24.50
2019-03-06T04:31:58.226Z,24.70
2019-03-06T04:32:58.194Z,23.10
2019-03-06T04:33:58.161Z,23.90
2019-03-06T04:34:58.126Z,22.80
2019-03-06T04:35:58.092Z,24.40
2019-03-06T04:36:58.069Z,24.00
2019-03-06T04:37:58.024Z,24.00
2019-03-06T04:38:57.992Z,23.10
2019-03-06T04:39:57.958Z,23.80
2019-03-06T04:40:57.925Z,24.10
2019-03-06T04:41:57.894Z,23.70
2019-03-06T04:42:57.860Z,22.10
2019-03-06T04:43:57.823Z,22.30
2019-03-06T04:44:57.790Z,23.50
2019-03-06T04:45:57.757Z,23.20
2019-03-06T04:46:57.724Z,22.10
2019-03-06T04:47:57.689Z,23.20
2019-03-06T04:48:57.660Z,24.10
2019-03-06T04:49:57.623Z,24.30
2019-03-06T04:50:57.603Z,24.60
2019-03-06T04:51:57.557Z,26.10
2019-03-06T04:52:57.523Z,24.60
2019-03-06T04:53:57.486Z,26.70
2019-03-06T04:54:57.455Z,25.30
2019-03-06T04:55:57.420Z,26.60
2019-03-06T04:56:57.387Z,23.60
2019-03-06T04:57:57.353Z,25.30
2019-03-06T04:58:57.318Z,24.70
2019-03-06T04:59:57.287Z,24.50
2019-03-06T05:00:57.253Z,24.50
2019-03-06T05:01:57.218Z,24.90
2019-03-06T05:02:57.185Z,23.80
2019-03-06T05:03:57.152Z,24.30
2019-03-06T05:04:57.119Z,24.70
2019-03-06T05:05:57.083Z,24.50
2019-03-06T05:06:57.052Z,24.10
2019-03-06T05:07:57.017Z,24.30
2019-03-06T05:08:56.982Z,25.90
2019-03-06T05:09:56.949Z,24.40
2019-03-06T05:10:56.915Z,26.60
2019-03-06T05:11:56.881Z,24.60
2019-03-06T05:12:56.848Z,25.40
2019-03-06T05:13:56.814Z,23.40
2019-03-06T05:14:56.779Z,24.20
2019-03-06T05:15:56.749Z,26.70
2019-03-06T05:16:56.717Z,26.70
2019-03-06T05:17:56.682Z,29.20
2019-03-06T05:18:56.644Z,27.70
2019-03-06T05:19:56.612Z,27.90
2019-03-06T05:20:56.578Z,29.20
2019-03-06T05:21:56.544Z,29.60
2019-03-06T05:22:56.509Z,28.50
2019-03-06T05:23:56.479Z,28.00
2019-03-06T05:24:56.443Z,26.20
2019-03-06T05:25:56.409Z,28.80
2019-03-06T05:26:56.375Z,28.00
2019-03-06T05:27:56.341Z,27.10
2019-03-06T05:28:56.307Z,27.50
2019-03-06T05:29:56.272Z,27.80
2019-03-06T05:30:56.238Z,25.10
2019-03-06T05:31:56.206Z,25.00
2019-03-06T05:32:56.172Z,25.30
2019-03-06T05:33:56.137Z,26.10
2019-03-06T05:34:56.103Z,26.00
2019-03-06T05:35:56.072Z,24.70
2019-03-06T05:36:56.040Z,24.40
2019-03-06T05:37:56.003Z,23.60
2019-03-06T05:38:55.970Z,25.10
2019-03-06T05:39:55.934Z,24.70
2019-03-06T05:40:55.902Z,24.90
2019-03-06T05:41:55.870Z,23.70
2019-03-06T05:42:55.833Z,24.80
2019-03-06T05:43:55.799Z,25.30
2019-03-06T05:44:55.766Z,26.40
2019-03-06T05:45:55.732Z,25.50
2019-03-06T05:46:55.697Z,24.00
2019-03-06T05:47:55.667Z,24.80
2019-03-06T05:48:55.633Z,25.40
2019-03-06T05:49:55.598Z,23.10
2019-03-06T05:50:55.563Z,22.80
2019-03-06T05:51:55.530Z,23.60
2019-03-06T05:52:55.497Z,25.20
2019-03-06T05:53:55.463Z,23.70
2019-03-06T05:54:55.430Z,23.40
2019-03-06T05:55:55.397Z,23.20
2019-03-06T05:56:55.363Z,25.10
2019-03-06T05:57:55.330Z,26.40
2019-03-06T05:58:55.296Z,23.60
2019-03-06T05:59:55.262Z,24.00
2019-03-06T06:00:55.229Z,24.30
2019-03-06T06:01:55.194Z,23.90
2019-03-06T06:02:55.163Z,25.80
2019-03-06T06:03:55.141Z,25.30
2019-03-06T06:04:55.095Z,29.00
2019-03-06T06:05:55.060Z,28.40
2019-03-06T06:06:55.027Z,27.50
2019-03-06T06:07:54.994Z,27.00
2019-03-06T06:08:54.961Z,26.80
2019-03-06T06:09:54.927Z,27.30
2019-03-06T06:10:54.894Z,26.30
2019-03-06T06:11:54.860Z,24.30
2019-03-06T06:12:54.827Z,24.90
2019-03-06T06:13:54.794Z,25.50
2019-03-06T06:14:54.760Z,24.20
2019-03-06T06:15:54.727Z,25.40
2019-03-06T06:16:55.627Z,25.90
2019-03-06T06:17:54.662Z,27.20
2019-03-06T06:18:54.627Z,25.40
2019-03-06T06:19:54.596Z,25.20
2019-03-06T06:20:54.561Z,26.10
2019-03-06T06:21:54.527Z,27.80
2019-03-06T06:22:54.493Z,28.90
2019-03-06T06:23:54.460Z,31.40
2019-03-06T06:24:54.428Z,28.20
2019-03-06T06:25:54.398Z,28.20
2019-03-06T06:26:54.360Z,27.30
2019-03-06T06:27:54.328Z,29.00
2019-03-06T06:28:54.294Z,26.50
2019-03-06T06:29:54.263Z,27.00
2019-03-06T06:30:54.228Z,26.60
2019-03-06T06:31:54.196Z,29.60
2019-03-06T06:32:54.163Z,29.10
2019-03-06T06:33:54.129Z,27.50
2019-03-06T06:34:54.099Z,28.30
2019-03-06T06:35:54.065Z,28.40
2019-03-06T06:36:54.032Z,27.80
2019-03-06T06:37:53.996Z,27.70
2019-03-06T06:38:53.964Z,26.20
2019-03-06T06:39:53.934Z,26.90
2019-03-06T06:40:53.900Z,25.20
2019-03-06T06:41:53.865Z,23.80
2019-03-06T06:42:53.833Z,21.90
2019-03-06T06:43:53.800Z,22.70
2019-03-06T06:44:53.770Z,23.50
2019-03-06T06:45:53.735Z,23.30
2019-03-06T06:46:53.702Z,23.10
2019-03-06T06:47:53.669Z,20.90
2019-03-06T06:48:53.639Z,20.90
2019-03-06T06:49:53.604Z,20.40
2019-03-06T06:51:01.277Z,19.50
2019-03-06T06:51:53.540Z,18.80
2019-03-06T06:52:53.509Z,19.70
2019-03-06T06:53:53.477Z,19.10
2019-03-06T06:54:53.443Z,17.60
2019-03-06T06:55:53.412Z,19.80
2019-03-06T06:56:53.381Z,19.00
2019-03-06T06:57:53.347Z,19.20
2019-03-06T06:58:53.317Z,20.40
2019-03-06T06:59:53.284Z,18.30
2019-03-06T07:00:53.254Z,19.00
2019-03-06T07:01:53.224Z,17.60
2019-03-06T07:02:53.191Z,18.00
2019-03-06T07:03:53.159Z,18.60
2019-03-06T07:04:53.130Z,16.90
2019-03-06T07:05:53.096Z,23.40
2019-03-06T07:06:53.065Z,17.60
2019-03-06T07:07:53.035Z,18.10
2019-03-06T07:08:53.003Z,22.70
2019-03-06T07:09:52.973Z,18.40
2019-03-06T07:10:52.942Z,16.90
2019-03-06T07:11:52.911Z,17.90
2019-03-06T07:12:52.882Z,18.10
2019-03-06T07:13:52.850Z,17.80
2019-03-06T07:14:52.822Z,17.60
2019-03-06T07:15:52.791Z,17.00
2019-03-06T07:16:52.760Z,17.00
2019-03-06T07:17:52.729Z,18.00
2019-03-06T07:18:52.697Z,17.50
2019-03-06T07:19:52.669Z,17.90
2019-03-06T07:20:52.636Z,19.10
2019-03-06T07:21:52.605Z,17.00
2019-03-06T07:22:52.577Z,18.80
2019-03-06T07:23:52.545Z,17.50
2019-03-06T07:24:52.515Z,17.10
2019-03-06T07:25:52.484Z,18.50
2019-03-06T07:26:52.454Z,17.40
2019-03-06T07:27:52.423Z,16.40
2019-03-06T07:28:52.393Z,16.30
2019-03-06T07:29:52.364Z,16.80
2019-03-06T07:30:52.334Z,17.50
2019-03-06T07:31:52.312Z,16.70
2019-03-06T07:32:52.275Z,17.70
2019-03-06T07:33:52.243Z,18.20
2019-03-06T07:34:52.213Z,20.10
2019-03-06T07:35:52.183Z,18.10
2019-03-06T07:36:52.153Z,16.30
2019-03-06T07:37:52.122Z,17.40
2019-03-06T07:38:52.094Z,15.80
2019-03-06T07:39:52.064Z,15.90
2019-03-06T07:40:52.033Z,16.40
2019-03-06T07:41:52.003Z,15.90
2019-03-06T07:42:51.976Z,15.70
2019-03-06T07:43:51.952Z,15.90
2019-03-06T07:44:51.915Z,14.20
2019-03-06T07:45:51.884Z,15.60
2019-03-06T07:46:51.857Z,15.50
2019-03-06T07:47:51.828Z,15.70
2019-03-06T07:48:51.802Z,14.90
2019-03-06T07:49:51.768Z,14.70
2019-03-06T07:50:51.737Z,14.20
2019-03-06T07:51:51.710Z,14.30
2019-03-06T07:52:51.683Z,14.60
2019-03-06T07:53:51.651Z,14.20
2019-03-06T07:54:51.621Z,13.80
2019-03-06T07:55:51.592Z,13.60
2019-03-06T07:56:51.563Z,14.10
2019-03-06T07:57:51.537Z,14.10
2019-03-06T07:58:51.506Z,13.50
2019-03-06T07:59:51.477Z,13.20
2019-03-06T08:00:51.448Z,13.70
2019-03-06T08:01:51.420Z,13.50
2019-03-06T08:02:51.393Z,14.50
2019-03-06T08:03:51.362Z,12.70
2019-03-06T08:04:51.332Z,13.40
2019-03-06T08:05:51.304Z,12.20
2019-03-06T08:06:51.275Z,13.20
2019-03-06T08:07:51.247Z,12.00
2019-03-06T08:08:51.219Z,13.00
2019-03-06T08:09:51.192Z,12.80
2019-03-06T08:10:51.160Z,12.10
2019-03-06T08:11:51.133Z,13.00
2019-03-06T08:12:51.105Z,13.00
2019-03-06T08:13:51.074Z,16.90
2019-03-06T08:14:51.047Z,13.90
2019-03-06T08:15:51.018Z,12.60
2019-03-06T08:16:50.990Z,11.70
2019-03-06T08:17:50.962Z,12.90
2019-03-06T08:18:50.934Z,11.60
2019-03-06T08:19:50.908Z,12.50
2019-03-06T08:20:50.879Z,11.60
2019-03-06T08:21:50.851Z,12.60
2019-03-06T08:22:50.826Z,11.40
2019-03-06T08:23:50.795Z,13.30
2019-03-06T08:24:50.768Z,11.70
2019-03-06T08:25:50.740Z,11.40
2019-03-06T08:26:50.711Z,12.50
2019-03-06T08:27:50.687Z,11.30
2019-03-06T08:28:50.654Z,18.00
2019-03-06T08:29:50.625Z,15.70
2019-03-06T08:30:50.599Z,11.70
2019-03-06T08:31:50.570Z,11.90
2019-03-06T08:32:50.544Z,15.30
2019-03-06T08:33:50.516Z,12.40
2019-03-06T08:34:50.486Z,10.80
2019-03-06T08:35:50.461Z,10.60
2019-03-06T08:36:50.431Z,12.00
2019-03-06T08:37:50.404Z,13.10
2019-03-06T08:38:50.375Z,11.10
2019-03-06T08:39:50.350Z,17.70
2019-03-06T08:40:50.321Z,10.60
2019-03-06T08:41:50.291Z,18.60
2019-03-06T08:42:50.262Z,16.40
2019-03-06T08:43:50.236Z,15.50
2019-03-06T08:44:50.254Z,11.10
2019-03-06T08:45:50.179Z,13.20
2019-03-06T08:46:50.150Z,12.30
2019-03-06T08:47:51.663Z,12.70
2019-03-06T08:48:50.099Z,14.10
2019-03-06T08:49:50.070Z,15.60
2019-03-06T08:50:50.051Z,12.90
2019-03-06T08:51:50.016Z,10.20
2019-03-06T08:52:49.988Z,10.70
2019-03-06T08:53:49.960Z,10.80
2019-03-06T08:54:49.937Z,10.40
2019-03-06T08:55:49.908Z,10.40
2019-03-06T08:56:49.879Z,10.50
2019-03-06T08:57:49.852Z,11.30
2019-03-06T08:58:49.823Z,10.60
2019-03-06T08:59:49.797Z,10.70
2019-03-06T09:00:49.772Z,10.70
2019-03-06T09:01:49.743Z,10.80
2019-03-06T09:02:49.716Z,10.70
2019-03-06T09:03:49.691Z,10.00
2019-03-06T09:04:49.663Z,11.00
2019-03-06T09:05:49.636Z,8.80
2019-03-06T09:06:49.608Z,10.80
2019-03-06T09:07:49.584Z,9.70
2019-03-06T09:08:49.561Z,10.00
2019-03-06T09:09:49.531Z,10.30
2019-03-06T09:10:49.501Z,9.90
2019-03-06T09:11:49.475Z,10.90
2019-03-06T09:12:49.447Z,10.70
2019-03-06T09:13:49.421Z,9.30
2019-03-06T09:14:49.396Z,10.10
2019-03-06T09:15:49.368Z,10.90
2019-03-06T09:16:49.340Z,10.10
2019-03-06T09:17:49.314Z,9.90
2019-03-06T09:18:49.287Z,10.20
2019-03-06T09:19:49.260Z,10.40
2019-03-06T09:20:49.240Z,9.70
2019-03-06T09:21:49.207Z,10.60
2019-03-06T09:22:49.179Z,9.70
2019-03-06T09:23:49.154Z,9.20
2019-03-06T09:24:49.126Z,9.40
2019-03-06T09:25:49.101Z,9.90
2019-03-06T09:26:49.073Z,10.30
2019-03-06T09:27:49.046Z,8.60
2019-03-06T09:28:49.021Z,10.50
2019-03-06T09:29:48.996Z,10.60
2019-03-06T09:30:48.968Z,10.00
2019-03-06T09:31:48.940Z,9.90
2019-03-06T09:32:48.914Z,9.90
2019-03-06T09:33:48.887Z,9.80
2019-03-06T09:34:48.860Z,10.00
2019-03-06T09:35:48.835Z,10.00
2019-03-06T09:36:48.809Z,9.20
2019-03-06T09:37:48.781Z,9.50
2019-03-06T09:38:48.755Z,9.50
2019-03-06T09:39:48.728Z,8.90
2019-03-06T09:40:48.705Z,10.30
2019-03-06T09:41:48.675Z,9.60
2019-03-06T09:42:48.649Z,10.10
2019-03-06T09:43:48.623Z,9.80
2019-03-06T09:44:48.597Z,9.50
2019-03-06T09:45:48.571Z,9.90
2019-03-06T09:46:48.543Z,9.90
2019-03-06T09:47:48.516Z,10.20
2019-03-06T09:48:48.488Z,10.00
2019-03-06T09:49:48.463Z,8.60
2019-03-06T09:50:48.436Z,10.00
2019-03-06T09:51:48.409Z,9.00
2019-03-06T09:52:48.383Z,9.30
2019-03-06T09:53:48.354Z,9.80
2019-03-06T09:54:48.328Z,9.80
2019-03-06T09:55:48.303Z,8.50
2019-03-06T09:56:48.275Z,8.90
2019-03-06T09:57:48.250Z,9.60
2019-03-06T09:58:48.270Z,9.90
2019-03-06T09:59:48.198Z,9.20
2019-03-06T10:00:48.171Z,9.20
2019-03-06T10:01:48.145Z,9.90
2019-03-06T10:02:48.120Z,9.20
2019-03-06T10:03:48.092Z,10.10
2019-03-06T10:04:48.065Z,8.30
2019-03-06T10:05:48.038Z,9.90
2019-03-06T10:06:48.013Z,9.10
2019-03-06T10:07:47.989Z,9.50
2019-03-06T10:08:47.964Z,9.00
2019-03-06T10:09:47.934Z,8.70
2019-03-06T10:10:57.256Z,8.80
2019-03-06T10:11:47.883Z,9.50
2019-03-06T10:12:47.893Z,8.80
2019-03-06T10:13:47.831Z,9.20
2019-03-06T10:14:47.805Z,8.80
2019-03-06T10:15:47.779Z,9.70
2019-03-06T10:16:49.054Z,9.30
2019-03-06T10:17:47.725Z,9.40
2019-03-06T10:18:47.699Z,9.60
2019-03-06T10:19:47.675Z,9.90
2019-03-06T10:20:47.647Z,9.40
2019-03-06T10:21:47.620Z,9.00
2019-03-06T10:22:48.970Z,9.50
2019-03-06T10:23:49.019Z,8.90
2019-03-06T10:24:47.542Z,9.70
2019-03-06T10:25:47.516Z,9.20
2019-03-06T10:26:47.491Z,9.20
2019-03-06T10:27:47.463Z,9.30
2019-03-06T10:28:47.437Z,9.10
2019-03-06T10:29:47.410Z,8.90
2019-03-06T10:30:47.384Z,7.80
2019-03-06T10:31:47.356Z,8.40
2019-03-06T10:32:47.331Z,8.30
2019-03-06T10:33:47.305Z,9.40
2019-03-06T10:34:47.277Z,9.50
2019-03-06T10:35:47.253Z,8.80
2019-03-06T10:36:47.292Z,9.60
2019-03-06T10:37:47.202Z,9.10
2019-03-06T10:38:47.175Z,9.40
2019-03-06T10:39:47.150Z,9.70
2019-03-06T10:40:47.131Z,9.30
2019-03-06T10:41:47.097Z,8.30
2019-03-06T10:42:47.072Z,9.70
2019-03-06T10:43:49.740Z,9.50
2019-03-06T10:44:47.022Z,9.50
2019-03-06T10:45:46.993Z,9.60
2019-03-06T10:46:46.968Z,8.60
2019-03-06T10:47:46.942Z,9.70
2019-03-06T10:48:48.379Z,10.00
2019-03-06T10:49:46.892Z,9.30
2019-03-06T10:50:46.866Z,9.00
2019-03-06T10:51:46.841Z,8.90
2019-03-06T10:52:46.816Z,9.50
2019-03-06T10:53:46.789Z,8.60
2019-03-06T10:54:46.763Z,8.70
2019-03-06T10:55:46.739Z,9.00
2019-03-06T10:56:46.713Z,9.30
2019-03-06T10:57:46.688Z,8.80
2019-03-06T10:58:46.662Z,8.20
2019-03-06T10:59:46.638Z,8.50
2019-03-06T11:00:46.615Z,9.20
2019-03-06T11:01:46.587Z,8.70
2019-03-06T11:02:46.565Z,8.20
2019-03-06T11:03:46.541Z,8.40
2019-03-06T11:04:46.518Z,8.10
2019-03-06T11:05:46.490Z,8.30
2019-03-06T11:06:46.467Z,8.30
2019-03-06T11:07:46.445Z,7.90
2019-03-06T11:08:46.422Z,7.60
2019-03-06T11:09:46.393Z,8.10
2019-03-06T11:10:46.369Z,7.30
2019-03-06T11:11:46.344Z,8.00
2019-03-06T11:12:46.322Z,8.20
2019-03-06T11:13:46.295Z,7.90
2019-03-06T11:14:46.272Z,7.70
2019-03-06T11:15:55.189Z,8.00
2019-03-06T11:16:46.224Z,7.70
2019-03-06T11:17:46.198Z,7.50
2019-03-06T11:18:46.174Z,7.40
2019-03-06T11:19:46.150Z,7.80
2019-03-06T11:20:46.127Z,8.30
2019-03-06T11:21:46.102Z,7.40
2019-03-06T11:22:46.077Z,8.50
2019-03-06T11:23:46.054Z,8.00
2019-03-06T11:24:46.028Z,7.90
2019-03-06T11:25:46.004Z,8.00
2019-03-06T11:26:45.980Z,8.20
2019-03-06T11:27:45.963Z,7.60
2019-03-06T11:28:45.933Z,8.20
2019-03-06T11:29:46.107Z,7.80
2019-03-06T11:30:45.881Z,8.30
2019-03-06T11:31:45.859Z,7.90
2019-03-06T11:32:54.128Z,8.00
2019-03-06T11:33:45.811Z,8.40
2019-03-06T11:34:45.786Z,7.50
2019-03-06T11:35:45.768Z,7.80
2019-03-06T11:36:45.739Z,7.80
2019-03-06T11:37:45.716Z,8.10
2019-03-06T11:38:45.693Z,8.10
2019-03-06T11:39:45.668Z,7.40
2019-03-06T11:40:45.647Z,7.20
2019-03-06T11:41:45.623Z,7.90
2019-03-06T11:42:45.599Z,8.00
2019-03-06T11:43:45.575Z,7.90
2019-03-06T11:44:45.553Z,7.90
2019-03-06T11:45:45.527Z,8.30
2019-03-06T11:46:45.504Z,6.40
2019-03-06T11:47:45.504Z,7.50
2019-03-06T11:48:45.459Z,8.00
2019-03-06T11:49:45.435Z,7.40
2019-03-06T11:50:45.411Z,7.90
2019-03-06T11:51:45.386Z,7.60
2019-03-06T11:52:45.362Z,7.30
2019-03-06T11:53:45.336Z,7.60
2019-03-06T11:54:45.313Z,7.70
2019-03-06T11:55:45.290Z,7.70
2019-03-06T11:56:45.268Z,8.10
2019-03-06T11:57:45.243Z,8.00
2019-03-06T11:58:45.220Z,8.40
2019-03-06T11:59:45.194Z,7.80
2019-03-06T12:00:45.171Z,8.10
2019-03-06T12:01:48.361Z,8.00
2019-03-06T12:02:45.122Z,7.70
2019-03-06T12:03:45.101Z,7.60
2019-03-06T12:04:45.074Z,8.20
2019-03-06T12:05:45.052Z,8.30
2019-03-06T12:06:45.026Z,8.00
2019-03-06T12:07:45.005Z,8.10
2019-03-06T12:08:45.882Z,7.80
2019-03-06T12:09:44.955Z,8.30
2019-03-06T12:10:44.930Z,8.20
2019-03-06T12:11:44.908Z,7.60
2019-03-06T12:12:44.885Z,7.40
2019-03-06T12:13:44.861Z,7.60
2019-03-06T12:14:44.837Z,7.60
2019-03-06T12:15:44.814Z,7.30
2019-03-06T12:16:44.791Z,7.70
2019-03-06T12:17:44.767Z,8.00
2019-03-06T12:18:44.742Z,6.70
2019-03-06T12:19:44.719Z,7.60
2019-03-06T12:20:44.696Z,7.40
2019-03-06T12:21:44.671Z,7.20
2019-03-06T12:22:44.647Z,7.60
2019-03-06T12:23:44.625Z,7.90
2019-03-06T12:24:44.600Z,7.70
2019-03-06T12:25:44.576Z,7.40
2019-03-06T12:26:44.554Z,7.60
2019-03-06T12:27:44.529Z,7.20
2019-03-06T12:28:44.509Z,7.70
2019-03-06T12:29:44.480Z,8.40
2019-03-06T12:30:44.457Z,8.70
2019-03-06T12:31:44.433Z,15.70
2019-03-06T12:32:45.593Z,9.40
2019-03-06T12:33:44.390Z,9.60
2019-03-06T12:34:44.361Z,8.90
2019-03-06T12:35:44.337Z,10.00
2019-03-06T12:36:44.314Z,9.50
2019-03-06T12:37:47.195Z,7.90
2019-03-06T12:38:44.264Z,10.10
2019-03-06T12:39:44.241Z,11.30
2019-03-06T12:40:44.217Z,9.30
2019-03-06T12:41:44.612Z,8.80
2019-03-06T12:42:44.169Z,11.20
2019-03-06T12:43:44.794Z,11.60
2019-03-06T12:44:44.123Z,11.20
2019-03-06T12:45:44.100Z,8.20
2019-03-06T12:46:44.130Z,7.80
2019-03-06T12:47:44.050Z,7.70
2019-03-06T12:48:44.028Z,7.60
2019-03-06T12:49:44.003Z,7.60
2019-03-06T12:50:53.038Z,7.40
2019-03-06T12:51:43.958Z,7.00
2019-03-06T12:52:43.933Z,6.60
2019-03-06T12:53:43.908Z,7.00
2019-03-06T12:54:43.885Z,6.40
2019-03-06T12:55:43.861Z,6.80
2019-03-06T12:56:43.839Z,6.70
2019-03-06T12:57:43.812Z,7.10
2019-03-06T12:58:43.789Z,7.00